Time;durP1;ratioP1;P1;durP2;ratioP2;P2;SDS_P1;SDS_P2;PMS_P1;PMS_P2;Temp;Humidity;BMP_temperature;BMP_pressure;BME280_temperature;BME280_humidity;BME280_pressure;Samples;Min_cycle;Max_cycle;Signal;HPM_P1;HPM_P2
2022/04/12 00:00:15;;;;;;;;;;;20.10;33.80;;;;;;5077444;28;19967;-49
2022/04/12 00:02:42;;;;;;;;;;;20.10;33.80;;;;;;5063715;28;19920;-50
2022/04/12 00:05:11;;;;;;;;;;;20.20;33.90;;;;;;5063969;28;19920;-53
2022/04/12 00:07:40;;;;;;;;;;;20.10;33.80;;;;;;5069372;28;19920;-47
2022/04/12 00:10:07;;;;;;;;;;;20.10;33.90;;;;;;5064509;28;19921;-49
2022/04/12 00:12:34;;;;;;;;;;;20.10;33.80;;;;;;5065788;28;19920;-49
2022/04/12 00:15:01;;;;;;;;;;;20.20;34.00;;;;;;5055699;28;19927;-48
2022/04/12 00:20:12;;;;;;;;;;;20.20;34.00;;;;;;5066179;28;20031;-51
2022/04/12 00:22:40;;;;;;;;;;;20.10;33.90;;;;;;5069936;28;19938;-49
2022/04/12 00:25:09;;;;;;;;;;;20.20;34.00;;;;;;5068305;28;19924;-48
2022/04/12 00:27:36;;;;;;;;;;;20.10;33.90;;;;;;5070537;28;19924;-50
2022/04/12 00:30:02;;;;;;;;;;;20.20;34.00;;;;;;5086455;28;20026;-52
2022/04/12 00:32:29;;;;;;;;;;;20.20;34.00;;;;;;5063773;28;19931;-48
2022/04/12 00:34:56;;;;;;;;;;;20.10;33.90;;;;;;5073203;28;19920;-51
2022/04/12 00:37:22;;;;;;;;;;;20.20;34.10;;;;;;5062373;28;20015;-50
2022/04/12 00:39:50;;;;;;;;;;;20.10;33.90;;;;;;5070371;28;20456;-52
2022/04/12 00:42:17;;;;;;;;;;;20.20;34.00;;;;;;5091112;28;19924;-52
2022/04/12 00:44:44;;;;;;;;;;;20.20;34.10;;;;;;5082025;28;19920;-49
2022/04/12 00:47:11;;;;;;;;;;;20.10;34.00;;;;;;5065236;28;20272;-49
2022/04/12 00:49:37;;;;;;;;;;;20.20;34.10;;;;;;5067901;28;20377;-50
2022/04/12 00:52:05;;;;;;;;;;;20.10;34.00;;;;;;5067356;28;19978;-47
2022/04/12 00:54:42;;;;;;;;;;;20.20;34.10;;;;;;5065716;28;20254;-47
2022/04/12 00:57:12;;;;;;;;;;;20.10;34.10;;;;;;5069136;28;20023;-48
2022/04/12 00:59:38;;;;;;;;;;;20.20;34.10;;;;;;5085267;28;19927;-48
2022/04/12 01:02:07;;;;;;;;;;;20.10;34.00;;;;;;5088276;28;20175;-46
2022/04/12 01:04:34;;;;;;;;;;;20.20;34.10;;;;;;5084725;28;19925;-46
2022/04/12 01:07:03;;;;;;;;;;;20.20;34.10;;;;;;5069772;28;19973;-55
2022/04/12 01:09:30;;;;;;;;;;;20.20;34.10;;;;;;5089605;28;19925;-48
2022/04/12 01:12:09;;;;;;;;;;;20.10;34.00;;;;;;5084508;28;19920;-52
2022/04/12 01:14:37;;;;;;;;;;;20.20;34.20;;;;;;5065557;28;19921;-48
2022/04/12 01:17:05;;;;;;;;;;;20.20;34.20;;;;;;5064870;28;20377;-51
2022/04/12 01:19:31;;;;;;;;;;;20.20;34.10;;;;;;5068960;28;20428;-49
2022/04/12 01:22:02;;;;;;;;;;;20.20;34.20;;;;;;5068588;28;20379;-50
2022/04/12 01:24:32;;;;;;;;;;;20.20;34.20;;;;;;5069435;28;19928;-48
2022/04/12 01:26:58;;;;;;;;;;;20.20;34.20;;;;;;5087376;28;20011;-49
2022/04/12 01:29:25;;;;;;;;;;;20.20;34.20;;;;;;5070412;28;19929;-49
2022/04/12 01:31:52;;;;;;;;;;;20.20;34.20;;;;;;5064835;28;20448;-49
2022/04/12 01:34:22;;;;;;;;;;;20.20;34.20;;;;;;5070517;28;19932;-47
2022/04/12 01:36:49;;;;;;;;;;;20.20;34.20;;;;;;5069271;28;19927;-51
2022/04/12 01:39:16;;;;;;;;;;;20.10;34.10;;;;;;5068340;28;19924;-47
2022/04/12 01:41:44;;;;;;;;;;;20.20;34.30;;;;;;5082212;28;20238;-50
2022/04/12 01:44:11;;;;;;;;;;;20.20;34.20;;;;;;5069704;28;20445;-47
2022/04/12 01:46:38;;;;;;;;;;;20.20;34.20;;;;;;5067683;28;19929;-48
2022/04/12 01:49:04;;;;;;;;;;;20.20;34.20;;;;;;5067993;28;20366;-47
2022/04/12 01:51:31;;;;;;;;;;;20.20;34.30;;;;;;5081328;28;19970;-53
2022/04/12 01:53:58;;;;;;;;;;;20.20;34.30;;;;;;5066478;28;20324;-48
2022/04/12 01:56:25;;;;;;;;;;;20.20;34.30;;;;;;5067435;28;19920;-49
2022/04/12 01:58:56;;;;;;;;;;;20.20;34.30;;;;;;5069414;28;19952;-48
2022/04/12 02:01:25;;;;;;;;;;;20.20;34.30;;;;;;5077728;28;19921;-46
2022/04/12 02:03:52;;;;;;;;;;;20.20;34.30;;;;;;5065190;28;19927;-47
2022/04/12 02:06:22;;;;;;;;;;;20.20;34.30;;;;;;5063354;28;19927;-47
2022/04/12 02:08:49;;;;;;;;;;;20.20;34.30;;;;;;5085978;28;19920;-48
2022/04/12 02:11:16;;;;;;;;;;;20.20;34.30;;;;;;5069998;28;19928;-47
2022/04/12 02:13:43;;;;;;;;;;;20.20;34.30;;;;;;5068402;28;20075;-51
2022/04/12 02:16:11;;;;;;;;;;;20.20;34.30;;;;;;5068597;28;20015;-47
2022/04/12 02:18:38;;;;;;;;;;;20.20;34.30;;;;;;5063074;28;20061;-46
2022/04/12 02:21:05;;;;;;;;;;;20.20;34.30;;;;;;5086708;28;19929;-46
2022/04/12 02:23:32;;;;;;;;;;;20.20;34.30;;;;;;5065993;28;19955;-49
2022/04/12 02:25:59;;;;;;;;;;;20.20;34.30;;;;;;5083961;28;19920;-51
2022/04/12 02:28:25;;;;;;;;;;;20.20;34.30;;;;;;5068363;28;19920;-47
2022/04/12 02:30:52;;;;;;;;;;;20.20;34.30;;;;;;5061536;28;19924;-48
2022/04/12 02:33:21;;;;;;;;;;;20.20;34.30;;;;;;5067576;28;19935;-49
2022/04/12 02:35:48;;;;;;;;;;;20.20;34.30;;;;;;5082133;28;20423;-49
2022/04/12 02:38:15;;;;;;;;;;;20.20;34.30;;;;;;5061938;28;19924;-52
2022/04/12 02:40:42;;;;;;;;;;;20.20;34.30;;;;;;5066389;28;19982;-47
2022/04/12 02:43:08;;;;;;;;;;;20.20;34.30;;;;;;5063009;28;19929;-49
2022/04/12 02:45:35;;;;;;;;;;;20.20;34.30;;;;;;5067102;28;19956;-51
2022/04/12 02:48:06;;;;;;;;;;;20.20;34.30;;;;;;5061346;28;20017;-47
2022/04/12 02:50:34;;;;;;;;;;;20.20;34.40;;;;;;5069577;28;19940;-49
2022/04/12 02:53:01;;;;;;;;;;;20.20;34.30;;;;;;5071567;28;20015;-47
2022/04/12 02:55:27;;;;;;;;;;;20.20;34.30;;;;;;5070102;28;19924;-50
2022/04/12 02:57:56;;;;;;;;;;;20.20;34.30;;;;;;5067779;28;19920;-50
2022/04/12 03:00:22;;;;;;;;;;;20.20;34.30;;;;;;5071063;28;19920;-52
2022/04/12 03:02:49;;;;;;;;;;;20.20;34.30;;;;;;5068702;28;19924;-51
2022/04/12 03:05:16;;;;;;;;;;;20.20;34.30;;;;;;5064339;28;20383;-50
2022/04/12 03:07:44;;;;;;;;;;;20.20;34.30;;;;;;5065477;28;19930;-50
2022/04/12 03:10:11;;;;;;;;;;;20.20;34.30;;;;;;5066633;28;19939;-53
2022/04/12 03:12:38;;;;;;;;;;;20.20;34.30;;;;;;5068426;28;20278;-52
2022/04/12 03:15:07;;;;;;;;;;;20.20;34.30;;;;;;5060359;28;20130;-49
2022/04/12 03:17:35;;;;;;;;;;;20.20;34.30;;;;;;5080482;28;19974;-50
2022/04/12 03:20:01;;;;;;;;;;;20.20;34.30;;;;;;5085130;28;20007;-50
2022/04/12 03:22:28;;;;;;;;;;;20.20;34.30;;;;;;5084495;28;19978;-51
2022/04/12 03:24:56;;;;;;;;;;;20.10;34.30;;;;;;5087456;28;19951;-53
2022/04/12 03:27:23;;;;;;;;;;;20.20;34.40;;;;;;5068073;28;19950;-54
2022/04/12 03:29:50;;;;;;;;;;;20.20;34.40;;;;;;5069135;28;19973;-47
2022/04/12 03:32:16;;;;;;;;;;;20.10;34.20;;;;;;5066972;28;19920;-52
2022/04/12 03:34:44;;;;;;;;;;;20.20;34.30;;;;;;5067750;28;19920;-50
2022/04/12 03:37:11;;;;;;;;;;;20.20;34.30;;;;;;5078176;28;19974;-52
2022/04/12 03:39:38;;;;;;;;;;;20.20;34.30;;;;;;5068844;28;20560;-50
2022/04/12 03:42:11;;;;;;;;;;;20.20;34.40;;;;;;5066737;28;19970;-49
2022/04/12 03:44:38;;;;;;;;;;;20.10;34.30;;;;;;5066835;28;19936;-51
2022/04/12 03:47:05;;;;;;;;;;;20.20;34.40;;;;;;5063193;28;19943;-51
2022/04/12 03:49:31;;;;;;;;;;;20.20;34.40;;;;;;5065777;28;19931;-48
2022/04/12 03:51:58;;;;;;;;;;;20.20;34.40;;;;;;5080185;28;20344;-48
2022/04/12 03:54:25;;;;;;;;;;;20.10;34.30;;;;;;5079193;28;20424;-48
2022/04/12 03:56:51;;;;;;;;;;;20.10;34.30;;;;;;5067684;28;19920;-52
2022/04/12 03:59:19;;;;;;;;;;;20.20;34.40;;;;;;5061256;28;19928;-49
2022/04/12 04:01:46;;;;;;;;;;;20.20;34.40;;;;;;5064470;28;19959;-54
2022/04/12 04:04:13;;;;;;;;;;;20.20;34.40;;;;;;5066773;28;20443;-48
2022/04/12 04:06:39;;;;;;;;;;;20.10;34.30;;;;;;5065565;28;19929;-49
2022/04/12 04:09:06;;;;;;;;;;;20.10;34.30;;;;;;5065799;28;19924;-53
2022/04/12 04:11:33;;;;;;;;;;;20.10;34.30;;;;;;5064336;28;19967;-48
2022/04/12 04:14:03;;;;;;;;;;;20.20;34.40;;;;;;5066564;28;19952;-48
2022/04/12 04:16:31;;;;;;;;;;;20.20;34.40;;;;;;5066560;28;19938;-52
2022/04/12 04:18:58;;;;;;;;;;;20.10;34.40;;;;;;5068422;28;20281;-48
2022/04/12 04:21:25;;;;;;;;;;;20.10;34.30;;;;;;5082606;28;19924;-49
2022/04/12 04:23:52;;;;;;;;;;;20.10;34.30;;;;;;5067225;28;19927;-51
2022/04/12 04:26:18;;;;;;;;;;;20.10;34.30;;;;;;5064376;28;20401;-50
2022/04/12 04:28:47;;;;;;;;;;;20.20;34.40;;;;;;5062330;28;19927;-51
2022/04/12 04:31:13;;;;;;;;;;;20.10;34.30;;;;;;5056051;28;20370;-53
2022/04/12 04:33:41;;;;;;;;;;;20.10;34.30;;;;;;5067437;28;20401;-47
2022/04/12 04:36:08;;;;;;;;;;;20.10;34.30;;;;;;5061177;28;19924;-48
2022/04/12 04:38:35;;;;;;;;;;;20.10;34.30;;;;;;5064062;28;19927;-49
2022/04/12 04:41:02;;;;;;;;;;;20.10;34.40;;;;;;5062740;28;19921;-50
2022/04/12 04:43:29;;;;;;;;;;;20.10;34.30;;;;;;5080830;28;19925;-46
2022/04/12 04:45:55;;;;;;;;;;;20.10;34.30;;;;;;5067500;28;20337;-48
2022/04/12 04:48:22;;;;;;;;;;;20.10;34.40;;;;;;5063311;28;19920;-49
2022/04/12 04:50:51;;;;;;;;;;;20.10;34.40;;;;;;5069374;28;20035;-47
2022/04/12 04:53:17;;;;;;;;;;;20.20;34.50;;;;;;5066077;28;19952;-49
2022/04/12 04:55:46;;;;;;;;;;;20.10;34.30;;;;;;5063455;28;19924;-51
2022/04/12 04:58:13;;;;;;;;;;;20.10;34.30;;;;;;5083623;28;20010;-49
2022/04/12 05:00:39;;;;;;;;;;;20.10;34.40;;;;;;5066526;28;19970;-51
2022/04/12 05:03:06;;;;;;;;;;;20.10;34.40;;;;;;5087356;28;19964;-49
2022/04/12 05:05:33;;;;;;;;;;;20.10;34.40;;;;;;5070813;28;20513;-50
2022/04/12 05:08:02;;;;;;;;;;;20.20;34.40;;;;;;5068930;28;19997;-47
2022/04/12 05:10:29;;;;;;;;;;;20.10;34.40;;;;;;5068049;28;19964;-51
2022/04/12 05:12:56;;;;;;;;;;;20.10;34.40;;;;;;5071699;28;19927;-55
2022/04/12 05:15:23;;;;;;;;;;;20.10;34.30;;;;;;5064148;28;19927;-50
2022/04/12 05:17:51;;;;;;;;;;;20.10;34.40;;;;;;5070649;28;20011;-49
2022/04/12 05:20:18;;;;;;;;;;;20.10;34.40;;;;;;5067224;28;19928;-49
2022/04/12 05:22:44;;;;;;;;;;;20.10;34.40;;;;;;5070959;28;19947;-52
2022/04/12 05:25:12;;;;;;;;;;;20.10;34.40;;;;;;5070983;28;20023;-51
2022/04/12 05:27:39;;;;;;;;;;;20.10;34.40;;;;;;5071828;28;19924;-52
2022/04/12 05:30:07;;;;;;;;;;;20.10;34.40;;;;;;5062628;28;19927;-49
2022/04/12 05:32:34;;;;;;;;;;;20.10;34.40;;;;;;5083804;28;19920;-46
2022/04/12 05:35:00;;;;;;;;;;;20.10;34.40;;;;;;5068061;28;19957;-52
2022/04/12 05:37:28;;;;;;;;;;;20.10;34.40;;;;;;5068084;28;20353;-49
2022/04/12 05:39:56;;;;;;;;;;;20.10;34.40;;;;;;5066498;28;19920;-51
2022/04/12 05:42:24;;;;;;;;;;;20.20;34.50;;;;;;5084263;28;20273;-49
2022/04/12 05:44:51;;;;;;;;;;;20.10;34.40;;;;;;5068237;28;19921;-46
2022/04/12 05:47:17;;;;;;;;;;;20.10;34.40;;;;;;5064789;28;20058;-53
2022/04/12 05:49:44;;;;;;;;;;;20.10;34.50;;;;;;5070503;28;20047;-51
2022/04/12 05:52:11;;;;;;;;;;;20.10;34.50;;;;;;5065789;28;20669;-47
2022/04/12 05:54:37;;;;;;;;;;;20.10;34.40;;;;;;5080956;28;20007;-48
2022/04/12 05:57:04;;;;;;;;;;;20.10;34.40;;;;;;5067648;28;20019;-47
2022/04/12 05:59:33;;;;;;;;;;;20.10;34.50;;;;;;5062551;28;19925;-48
2022/04/12 06:01:59;;;;;;;;;;;20.20;34.50;;;;;;5061189;28;20434;-48
2022/04/12 06:04:26;;;;;;;;;;;20.10;34.50;;;;;;5079741;28;19926;-49
2022/04/12 06:06:53;;;;;;;;;;;20.20;34.60;;;;;;5080692;28;20279;-49
2022/04/12 06:09:20;;;;;;;;;;;20.10;34.50;;;;;;5064251;28;19939;-50
2022/04/12 06:11:47;;;;;;;;;;;20.20;34.60;;;;;;5085927;28;19921;-48
2022/04/12 06:14:13;;;;;;;;;;;20.20;34.60;;;;;;5065217;28;19920;-50
2022/04/12 06:16:42;;;;;;;;;;;20.20;34.70;;;;;;5059850;28;19929;-52
2022/04/12 06:19:09;;;;;;;;;;;20.20;34.50;;;;;;5076955;28;19921;-52
2022/04/12 06:21:37;;;;;;;;;;;20.20;34.40;;;;;;5070971;28;19967;-52
2022/04/12 06:24:04;;;;;;;;;;;20.20;34.80;;;;;;5077246;28;19939;-49
2022/04/12 06:26:31;;;;;;;;;;;20.10;33.90;;;;;;5075334;28;19920;-53
2022/04/12 06:28:58;;;;;;;;;;;20.10;33.80;;;;;;5072597;28;19958;-49
2022/04/12 06:31:24;;;;;;;;;;;20.20;33.70;;;;;;5075110;28;19931;-45
2022/04/12 06:33:52;;;;;;;;;;;20.10;33.50;;;;;;5075656;28;19921;-48
2022/04/12 06:36:19;;;;;;;;;;;20.10;33.20;;;;;;5080030;28;19920;-49
2022/04/12 06:38:46;;;;;;;;;;;20.10;33.20;;;;;;5075014;28;20515;-45
2022/04/12 06:41:12;;;;;;;;;;;20.10;33.00;;;;;;5088908;28;19966;-48
2022/04/12 06:43:39;;;;;;;;;;;20.00;32.90;;;;;;5070611;28;20353;-46
2022/04/12 06:46:06;;;;;;;;;;;20.00;32.90;;;;;;5075760;28;19920;-46
2022/04/12 06:48:32;;;;;;;;;;;20.00;33.00;;;;;;5075645;28;19920;-53
2022/04/12 06:51:01;;;;;;;;;;;20.00;33.00;;;;;;5075997;28;19977;-54
2022/04/12 06:53:28;;;;;;;;;;;20.00;32.90;;;;;;5091118;28;20327;-51
2022/04/12 06:55:55;;;;;;;;;;;20.00;33.00;;;;;;5074559;28;19921;-50
2022/04/12 06:58:22;;;;;;;;;;;20.00;33.00;;;;;;5065614;28;19962;-52
2022/04/12 07:00:49;;;;;;;;;;;20.00;33.00;;;;;;5063052;28;20250;-53
2022/04/12 07:03:16;;;;;;;;;;;20.00;33.00;;;;;;5090348;28;19920;-53
2022/04/12 07:05:43;;;;;;;;;;;20.00;32.90;;;;;;5089279;28;19921;-52
2022/04/12 07:08:12;;;;;;;;;;;20.00;32.90;;;;;;5074466;28;19944;-48
2022/04/12 07:10:39;;;;;;;;;;;19.90;32.90;;;;;;5071162;28;19928;-50
2022/04/12 07:13:06;;;;;;;;;;;19.90;32.90;;;;;;5074401;28;19920;-51
2022/04/12 07:15:32;;;;;;;;;;;19.90;32.90;;;;;;5073945;28;19963;-51
2022/04/12 07:17:59;;;;;;;;;;;19.90;32.80;;;;;;5074467;28;19920;-53
2022/04/12 07:20:26;;;;;;;;;;;19.90;32.80;;;;;;5068593;28;19924;-49
2022/04/12 07:22:53;;;;;;;;;;;20.00;32.80;;;;;;5085384;28;20358;-48
2022/04/12 07:25:21;;;;;;;;;;;19.90;32.70;;;;;;5062479;28;19982;-48
2022/04/12 07:27:48;;;;;;;;;;;19.90;33.30;;;;;;5073302;28;19956;-49
2022/04/12 07:30:16;;;;;;;;;;;19.90;32.70;;;;;;5072134;28;19927;-48
2022/04/12 07:32:43;;;;;;;;;;;19.90;32.70;;;;;;5074486;28;19920;-48
2022/04/12 07:35:10;;;;;;;;;;;19.90;32.60;;;;;;5071283;28;19920;-50
2022/04/12 07:37:36;;;;;;;;;;;19.90;32.60;;;;;;5074892;28;19931;-52
2022/04/12 07:40:04;;;;;;;;;;;19.90;32.50;;;;;;5068988;28;19921;-53
2022/04/12 07:42:32;;;;;;;;;;;19.90;32.60;;;;;;5058338;28;20355;-51
2022/04/12 07:44:58;;;;;;;;;;;19.90;32.60;;;;;;5055901;28;19947;-50
2022/04/12 07:47:25;;;;;;;;;;;19.90;32.70;;;;;;5065090;28;20431;-48
2022/04/12 07:49:52;;;;;;;;;;;19.90;32.70;;;;;;5067356;28;19970;-48
2022/04/12 07:52:19;;;;;;;;;;;19.90;32.70;;;;;;5060425;28;20308;-48
2022/04/12 07:54:45;;;;;;;;;;;19.90;32.70;;;;;;5062565;28;19964;-51
2022/04/12 07:57:12;;;;;;;;;;;19.90;32.70;;;;;;5064667;28;20385;-52
2022/04/12 07:59:40;;;;;;;;;;;19.90;32.70;;;;;;5082739;28;19921;-54
2022/04/12 08:02:07;;;;;;;;;;;19.90;32.70;;;;;;5064226;28;19966;-50
2022/04/12 08:04:34;;;;;;;;;;;19.90;32.80;;;;;;5063085;28;20273;-45
2022/04/12 08:07:00;;;;;;;;;;;19.90;32.90;;;;;;5064857;28;19920;-52
2022/04/12 08:09:27;;;;;;;;;;;19.90;33.50;;;;;;5066651;28;20315;-49
2022/04/12 08:11:54;;;;;;;;;;;19.90;33.00;;;;;;5063976;28;19966;-47
2022/04/12 08:14:21;;;;;;;;;;;19.90;33.00;;;;;;5062835;28;20111;-51
2022/04/12 08:16:49;;;;;;;;;;;19.90;33.10;;;;;;5066514;28;20061;-48
2022/04/12 08:19:16;;;;;;;;;;;19.90;33.10;;;;;;5065607;28;19920;-52
2022/04/12 08:21:43;;;;;;;;;;;19.90;33.10;;;;;;5082607;28;19921;-47
2022/04/12 08:24:09;;;;;;;;;;;19.90;33.20;;;;;;5061748;28;19920;-46
2022/04/12 08:26:36;;;;;;;;;;;19.90;33.20;;;;;;5063927;28;19928;-47
2022/04/12 08:29:03;;;;;;;;;;;19.90;33.20;;;;;;5065748;28;19963;-55
2022/04/12 08:31:30;;;;;;;;;;;19.90;33.30;;;;;;5064177;28;20035;-51
2022/04/12 08:33:58;;;;;;;;;;;19.90;33.30;;;;;;5061526;28;19920;-51
2022/04/12 08:36:25;;;;;;;;;;;19.90;33.40;;;;;;5053979;28;19928;-49
2022/04/12 08:38:52;;;;;;;;;;;20.00;33.50;;;;;;5069045;28;20380;-47
2022/04/12 08:41:19;;;;;;;;;;;20.00;33.50;;;;;;5065481;28;20384;-49
2022/04/12 08:43:46;;;;;;;;;;;20.00;33.50;;;;;;5062739;28;20337;-49
2022/04/12 08:46:12;;;;;;;;;;;20.00;33.50;;;;;;5067829;28;20265;-50
2022/04/12 08:48:39;;;;;;;;;;;20.00;33.50;;;;;;5065871;28;20019;-45
2022/04/12 08:51:07;;;;;;;;;;;20.00;33.60;;;;;;5065021;28;19928;-47
2022/04/12 08:53:34;;;;;;;;;;;20.10;33.70;;;;;;5065356;28;20011;-49
2022/04/12 08:56:01;;;;;;;;;;;20.10;33.70;;;;;;5062062;28;19958;-50
2022/04/12 08:58:28;;;;;;;;;;;20.10;33.80;;;;;;5065161;28;19921;-50
2022/04/12 09:00:55;;;;;;;;;;;20.10;33.80;;;;;;5066965;28;19921;-51
2022/04/12 09:03:22;;;;;;;;;;;20.10;33.80;;;;;;5064375;28;19924;-48
2022/04/12 09:05:49;;;;;;;;;;;20.10;33.80;;;;;;5084236;28;19936;-50
2022/04/12 09:08:29;;;;;;;;;;;20.10;33.80;;;;;;5085220;28;19990;-49
2022/04/12 09:10:57;;;;;;;;;;;20.10;33.80;;;;;;5068919;28;19994;-53
2022/04/12 09:13:24;;;;;;;;;;;20.10;33.80;;;;;;5069049;28;20391;-47
2022/04/12 09:15:51;;;;;;;;;;;20.10;33.80;;;;;;5064856;28;19920;-53
2022/04/12 09:18:31;;;;;;;;;;;20.10;33.80;;;;;;5065930;28;19978;-49
2022/04/12 09:21:08;;;;;;;;;;;20.20;34.00;;;;;;5085443;28;19958;-54
2022/04/12 09:23:36;;;;;;;;;;;20.20;34.00;;;;;;5083025;28;19979;-47
2022/04/12 09:26:03;;;;;;;;;;;20.20;34.00;;;;;;5083561;28;20002;-51
2022/04/12 09:28:39;;;;;;;;;;;20.20;34.00;;;;;;5068475;28;19928;-53
2022/04/12 09:31:10;;;;;;;;;;;20.20;34.10;;;;;;5086353;28;19920;-48
2022/04/12 09:33:38;;;;;;;;;;;20.20;34.10;;;;;;5068743;28;20358;-50
2022/04/12 09:36:06;;;;;;;;;;;20.20;34.00;;;;;;5086525;28;19994;-48
2022/04/12 09:38:33;;;;;;;;;;;20.20;34.10;;;;;;5082530;28;19920;-50
2022/04/12 09:41:18;;;;;;;;;;;20.20;34.10;;;;;;5070684;28;19925;-48
2022/04/12 09:43:55;;;;;;;;;;;20.20;34.10;;;;;;5061765;28;20015;-52
2022/04/12 09:46:22;;;;;;;;;;;20.20;34.10;;;;;;5065509;28;20019;-51
2022/04/12 09:48:48;;;;;;;;;;;20.20;34.10;;;;;;5066653;28;19960;-48
2022/04/12 09:51:15;;;;;;;;;;;20.20;34.10;;;;;;5066882;28;20377;-47
2022/04/12 09:53:42;;;;;;;;;;;20.20;34.20;;;;;;5081029;28;19974;-47
2022/04/12 09:56:17;;;;;;;;;;;20.30;34.20;;;;;;5067072;28;19928;-51
2022/04/12 09:58:45;;;;;;;;;;;20.20;34.10;;;;;;5068419;28;20083;-46
2022/04/12 10:01:12;;;;;;;;;;;20.30;34.20;;;;;;5085084;28;19939;-48
2022/04/12 10:03:39;;;;;;;;;;;20.30;34.20;;;;;;5067155;28;19932;-46
2022/04/12 10:06:05;;;;;;;;;;;20.30;34.20;;;;;;5064975;28;19928;-49
2022/04/12 10:08:32;;;;;;;;;;;20.30;34.20;;;;;;5080715;28;19928;-54
2022/04/12 10:10:59;;;;;;;;;;;20.30;34.30;;;;;;5068186;28;19960;-53
2022/04/12 10:13:27;;;;;;;;;;;20.30;34.20;;;;;;5064952;28;19924;-47
2022/04/12 10:15:54;;;;;;;;;;;20.30;34.20;;;;;;5063992;28;19927;-51
2022/04/12 10:18:21;;;;;;;;;;;20.30;34.20;;;;;;5068086;28;20264;-52
2022/04/12 10:20:48;;;;;;;;;;;20.30;34.30;;;;;;5067255;28;19927;-50
2022/04/12 10:23:19;;;;;;;;;;;20.30;34.30;;;;;;5068428;28;19944;-46
2022/04/12 10:25:48;;;;;;;;;;;20.30;34.20;;;;;;5066080;28;19930;-49
2022/04/12 10:28:15;;;;;;;;;;;20.30;34.30;;;;;;5062324;28;19921;-47
2022/04/12 10:30:43;;;;;;;;;;;20.30;34.30;;;;;;5061502;28;19920;-52
2022/04/12 10:33:17;;;;;;;;;;;20.30;34.30;;;;;;5064493;28;19951;-51
2022/04/12 10:35:59;;;;;;;;;;;20.40;34.40;;;;;;5067563;28;19970;-47
2022/04/12 10:38:26;;;;;;;;;;;20.30;34.30;;;;;;5085075;28;19974;-46
2022/04/12 10:40:53;;;;;;;;;;;20.30;34.30;;;;;;5067161;28;19927;-47
2022/04/12 10:43:23;;;;;;;;;;;20.40;34.40;;;;;;5078096;28;20200;-53
2022/04/12 10:45:51;;;;;;;;;;;20.30;34.30;;;;;;5067004;28;19958;-48
2022/04/12 10:48:18;;;;;;;;;;;20.40;34.40;;;;;;5063941;28;19921;-52
2022/04/12 10:50:46;;;;;;;;;;;20.40;34.40;;;;;;5063923;28;19924;-55
2022/04/12 10:53:12;;;;;;;;;;;20.40;34.40;;;;;;5080758;28;19921;-47
2022/04/12 10:55:40;;;;;;;;;;;20.40;34.40;;;;;;5057160;28;20055;-50
2022/04/12 10:58:14;;;;;;;;;;;20.40;34.40;;;;;;5076268;28;20453;-51
2022/04/12 11:00:41;;;;;;;;;;;20.30;34.30;;;;;;5067689;28;19924;-46
2022/04/12 11:03:11;;;;;;;;;;;20.40;34.40;;;;;;5053050;28;20234;-53
2022/04/12 11:05:56;;;;;;;;;;;20.40;34.40;;;;;;5063828;28;19920;-47
2022/04/12 11:08:43;;;;;;;;;;;20.40;34.40;;;;;;5058061;28;19939;-49
2022/04/12 11:11:10;;;;;;;;;;;20.40;34.40;;;;;;5062216;28;19928;-54
2022/04/12 11:13:36;;;;;;;;;;;20.40;34.40;;;;;;5062614;28;19921;-52
2022/04/12 11:16:04;;;;;;;;;;;20.40;34.40;;;;;;5064537;28;19964;-46
2022/04/12 11:18:46;;;;;;;;;;;20.40;34.40;;;;;;5058430;28;19920;-49
2022/04/12 11:21:14;;;;;;;;;;;20.40;34.40;;;;;;5078285;28;19920;-50
2022/04/12 11:23:45;;;;;;;;;;;20.40;34.50;;;;;;5054175;28;19921;-51
2022/04/12 11:26:25;;;;;;;;;;;20.40;34.50;;;;;;5075276;28;19921;-47
2022/04/12 11:28:52;;;;;;;;;;;20.40;34.50;;;;;;5060314;28;19920;-46
2022/04/12 11:31:19;;;;;;;;;;;20.40;34.50;;;;;;5057964;28;19979;-51
2022/04/12 11:33:45;;;;;;;;;;;20.40;34.50;;;;;;5058394;28;19997;-48
2022/04/12 11:36:15;;;;;;;;;;;20.40;34.50;;;;;;5045204;28;21894;-50
2022/04/12 11:38:42;;;;;;;;;;;20.40;35.10;;;;;;5076815;28;19974;-49
2022/04/12 11:41:09;;;;;;;;;;;20.40;34.60;;;;;;5064388;28;19990;-49
2022/04/12 11:43:36;;;;;;;;;;;20.40;34.60;;;;;;5055588;28;19928;-49
2022/04/12 11:46:02;;;;;;;;;;;20.40;34.60;;;;;;5063941;28;19928;-50
2022/04/12 11:48:29;;;;;;;;;;;20.40;34.60;;;;;;5064584;28;19921;-53
2022/04/12 11:50:56;;;;;;;;;;;20.40;34.60;;;;;;5058727;28;19930;-49
2022/04/12 11:53:25;;;;;;;;;;;20.40;34.70;;;;;;5058919;28;19928;-52
2022/04/12 11:55:52;;;;;;;;;;;20.40;34.70;;;;;;5062896;28;20031;-49
2022/04/12 11:58:19;;;;;;;;;;;20.40;34.70;;;;;;5057293;28;19924;-54
2022/04/12 12:00:46;;;;;;;;;;;20.40;34.70;;;;;;5058957;28;19931;-54
2022/04/12 12:03:16;;;;;;;;;;;20.40;34.70;;;;;;5060952;28;20019;-49
2022/04/12 12:05:43;;;;;;;;;;;20.40;34.70;;;;;;5066627;28;19936;-46
2022/04/12 12:08:11;;;;;;;;;;;20.40;34.80;;;;;;5065079;28;20003;-47
2022/04/12 12:10:39;;;;;;;;;;;20.40;34.80;;;;;;5065039;28;19931;-50
2022/04/12 12:13:06;;;;;;;;;;;20.40;34.80;;;;;;5066682;28;20010;-52
2022/04/12 12:15:33;;;;;;;;;;;20.40;34.80;;;;;;5057058;28;19925;-54
2022/04/12 12:18:00;;;;;;;;;;;20.40;34.80;;;;;;5056073;28;19925;-53
2022/04/12 12:20:27;;;;;;;;;;;20.40;34.80;;;;;;5067232;28;19920;-52
2022/04/12 12:22:55;;;;;;;;;;;20.40;34.70;;;;;;5068117;28;19925;-52
2022/04/12 12:25:24;;;;;;;;;;;20.40;34.50;;;;;;5063219;28;19921;-53
2022/04/12 12:27:53;;;;;;;;;;;20.40;34.40;;;;;;5062627;28;19920;-52
2022/04/12 12:30:20;;;;;;;;;;;20.40;34.20;;;;;;5063688;28;19958;-52
2022/04/12 12:32:50;;;;;;;;;;;20.40;34.10;;;;;;5066235;28;19928;-54
2022/04/12 12:35:17;;;;;;;;;;;20.40;34.10;;;;;;5064835;28;19959;-53
2022/04/12 12:37:45;;;;;;;;;;;20.40;34.00;;;;;;5061604;28;19921;-54
2022/04/12 12:40:19;;;;;;;;;;;20.40;33.90;;;;;;5062168;28;19921;-52
2022/04/12 12:42:46;;;;;;;;;;;20.40;33.90;;;;;;5051183;28;20313;-49
2022/04/12 12:45:16;;;;;;;;;;;20.40;33.80;;;;;;5049758;28;20380;-52
2022/04/12 12:47:43;;;;;;;;;;;20.40;33.60;;;;;;5061496;28;20517;-54
2022/04/12 12:50:11;;;;;;;;;;;20.40;33.20;;;;;;5082923;28;20018;-48
2022/04/12 12:52:37;;;;;;;;;;;20.40;32.30;;;;;;5065977;28;19974;-51
2022/04/12 12:55:07;;;;;;;;;;;20.30;32.50;;;;;;5065584;28;19963;-51
2022/04/12 12:57:40;;;;;;;;;;;20.30;32.80;;;;;;5055797;28;19994;-50
2022/04/12 13:00:08;;;;;;;;;;;20.30;33.00;;;;;;5080685;28;19932;-50
2022/04/12 13:02:37;;;;;;;;;;;20.30;33.20;;;;;;5065433;28;19924;-47
2022/04/12 13:05:04;;;;;;;;;;;20.30;33.30;;;;;;5062246;28;19928;-54
2022/04/12 13:07:31;;;;;;;;;;;20.40;33.50;;;;;;5059393;28;19960;-50
2022/04/12 13:10:05;;;;;;;;;;;20.40;33.60;;;;;;5061464;28;19960;-49
2022/04/12 13:12:32;;;;;;;;;;;20.40;33.70;;;;;;5063199;28;20050;-48
2022/04/12 13:14:58;;;;;;;;;;;20.40;33.80;;;;;;5059801;28;20015;-48
2022/04/12 13:17:25;;;;;;;;;;;20.40;33.80;;;;;;5062219;28;19927;-52
2022/04/12 13:19:54;;;;;;;;;;;20.40;33.90;;;;;;5067499;28;19935;-48
2022/04/12 13:22:21;;;;;;;;;;;20.40;34.00;;;;;;5070772;28;19920;-51
2022/04/12 13:24:48;;;;;;;;;;;20.40;34.10;;;;;;5068274;28;19920;-51
2022/04/12 13:27:15;;;;;;;;;;;20.40;34.10;;;;;;5064158;28;20439;-51
2022/04/12 13:29:42;;;;;;;;;;;20.40;34.10;;;;;;5066881;28;19920;-49
2022/04/12 13:32:09;;;;;;;;;;;20.40;34.10;;;;;;5070173;28;19920;-48
2022/04/12 13:34:35;;;;;;;;;;;20.40;34.20;;;;;;5069446;28;19927;-50
2022/04/12 13:37:04;;;;;;;;;;;20.40;34.30;;;;;;5054032;28;19920;-50
2022/04/12 13:39:30;;;;;;;;;;;20.40;34.30;;;;;;5076862;28;20094;-49
2022/04/12 13:41:57;;;;;;;;;;;20.40;34.30;;;;;;5067493;28;19966;-49
2022/04/12 13:44:24;;;;;;;;;;;20.50;34.40;;;;;;5065186;28;19924;-55
2022/04/12 13:46:52;;;;;;;;;;;20.50;34.50;;;;;;5071370;28;20343;-51
2022/04/12 13:49:18;;;;;;;;;;;20.50;34.50;;;;;;5064128;28;19925;-48
2022/04/12 13:51:45;;;;;;;;;;;20.50;34.50;;;;;;5067584;28;19920;-50
2022/04/12 13:54:14;;;;;;;;;;;20.50;34.50;;;;;;5064147;28;19920;-48
2022/04/12 13:56:41;;;;;;;;;;;20.50;34.50;;;;;;5067670;28;19932;-53
2022/04/12 13:59:07;;;;;;;;;;;20.50;34.50;;;;;;5050138;28;20709;-50
2022/04/12 14:01:35;;;;;;;;;;;20.50;34.50;;;;;;5063132;28;19939;-56
2022/04/12 14:04:01;;;;;;;;;;;20.50;34.60;;;;;;5065438;28;20052;-49
2022/04/12 14:06:29;;;;;;;;;;;20.50;34.60;;;;;;5071766;28;19932;-53
2022/04/12 14:08:56;;;;;;;;;;;20.50;34.70;;;;;;5062751;28;19921;-49
2022/04/12 14:11:24;;;;;;;;;;;20.50;34.70;;;;;;5060724;28;19921;-52
2022/04/12 14:13:51;;;;;;;;;;;20.50;34.70;;;;;;5080901;28;20280;-51
2022/04/12 14:16:18;;;;;;;;;;;20.50;34.70;;;;;;5067287;28;19921;-48
2022/04/12 14:18:45;;;;;;;;;;;20.50;34.70;;;;;;5068677;28;19963;-51
2022/04/12 14:21:11;;;;;;;;;;;20.60;34.80;;;;;;5067501;28;19920;-53